createdAt,value
2022-08-14T00:00:22.745Z,90.70
2022-08-14T00:04:34.520Z,90.60
2022-08-14T00:08:14.406Z,90.80
2022-08-14T00:11:58.432Z,91.10
2022-08-14T00:15:48.038Z,91.30
2022-08-14T00:19:30.791Z,91.50
2022-08-14T00:23:17.772Z,91.70
2022-08-14T00:27:02.860Z,91.70
2022-08-14T00:30:45.600Z,91.90
2022-08-14T00:34:37.188Z,92.10
2022-08-14T00:38:28.552Z,92.20
2022-08-14T00:42:52.452Z,92.40
2022-08-14T00:46:32.131Z,93.00
2022-08-14T00:50:18.896Z,93.10
2022-08-14T00:54:05.339Z,93.30
2022-08-14T00:58:18.930Z,93.40
2022-08-14T01:02:11.690Z,93.30
2022-08-14T01:05:54.943Z,93.50
2022-08-14T01:09:40.621Z,93.60
2022-08-14T01:13:42.674Z,93.80
2022-08-14T01:17:49.869Z,94.00
2022-08-14T01:21:38.769Z,94.50
2022-08-14T01:25:29.374Z,94.90
2022-08-14T01:29:25.958Z,95.00
2022-08-14T01:33:14.837Z,95.20
2022-08-14T01:37:02.004Z,95.30
2022-08-14T01:40:47.277Z,95.40
2022-08-14T01:44:33.877Z,95.30
2022-08-14T01:48:20.781Z,95.40
2022-08-14T01:52:09.027Z,95.50
2022-08-14T01:56:12.048Z,95.60
2022-08-14T02:00:03.175Z,95.70
2022-08-14T02:03:49.914Z,95.90
2022-08-14T02:07:55.767Z,96.10
2022-08-14T02:11:38.956Z,96.40
2022-08-14T02:15:21.965Z,96.50
2022-08-14T02:19:07.595Z,96.80
2022-08-14T02:22:55.055Z,97.10
2022-08-14T02:28:19.116Z,97.30
2022-08-14T02:30:42.584Z,97.50
2022-08-14T02:34:29.246Z,98.00
2022-08-14T02:38:29.929Z,98.20
2022-08-14T02:42:23.626Z,98.80
2022-08-14T02:46:27.018Z,99.90
2022-08-14T02:50:16.892Z,99.60
2022-08-14T02:54:03.536Z,99.90
2022-08-14T02:57:57.812Z,99.80
2022-08-14T03:01:43.813Z,99.50
2022-08-14T03:05:36.968Z,98.60
2022-08-14T03:09:25.326Z,98.10
2022-08-14T03:13:25.091Z,97.90
2022-08-14T03:17:11.479Z,97.90
2022-08-14T03:20:56.146Z,97.90
2022-08-14T03:24:40.766Z,98.00
2022-08-14T03:28:29.735Z,97.80
2022-08-14T03:32:16.641Z,97.80
2022-08-14T03:36:07.700Z,98.00
2022-08-14T03:40:05.168Z,98.10
2022-08-14T03:43:57.818Z,98.10
2022-08-14T03:47:50.441Z,98.10
2022-08-14T03:51:40.243Z,98.60
2022-08-14T03:55:24.483Z,98.70
2022-08-14T03:59:08.189Z,98.40
2022-08-14T04:03:00.315Z,98.80
2022-08-14T04:06:47.711Z,98.50
2022-08-14T04:10:33.652Z,98.40
2022-08-14T04:14:16.618Z,98.40
2022-08-14T04:18:03.545Z,98.50
2022-08-14T04:22:02.415Z,98.70
2022-08-14T04:25:48.337Z,98.60
2022-08-14T04:29:32.604Z,98.50
2022-08-14T04:33:20.691Z,98.40
2022-08-14T04:37:24.655Z,98.40
2022-08-14T04:41:30.215Z,98.20
2022-08-14T04:45:15.088Z,97.90
2022-08-14T04:49:00.140Z,97.80
2022-08-14T04:52:44.037Z,97.80
2022-08-14T04:56:31.228Z,97.20
2022-08-14T05:00:18.259Z,96.90
2022-08-14T05:04:01.497Z,96.70
2022-08-14T05:07:54.076Z,96.50
2022-08-14T05:11:38.465Z,96.50
2022-08-14T05:15:22.276Z,96.00
2022-08-14T05:19:18.036Z,95.90
2022-08-14T05:23:11.182Z,96.00
2022-08-14T05:26:55.398Z,95.80
2022-08-14T05:30:38.168Z,95.90
2022-08-14T05:34:20.872Z,95.70
2022-08-14T05:38:10.774Z,95.50
2022-08-14T05:41:54.885Z,95.20
2022-08-14T05:45:38.745Z,94.80
2022-08-14T05:49:22.247Z,94.90
2022-08-14T05:53:09.440Z,94.50
2022-08-14T05:56:52.049Z,93.90
2022-08-14T06:00:39.644Z,93.40
2022-08-14T06:04:22.789Z,93.20
2022-08-14T06:08:08.761Z,92.50
2022-08-14T06:12:10.732Z,91.90
2022-08-14T06:15:55.745Z,91.30
2022-08-14T06:19:41.082Z,91.00
2022-08-14T06:23:23.821Z,90.20
2022-08-14T06:27:09.999Z,90.00
2022-08-14T06:30:53.376Z,89.70
2022-08-14T06:35:09.214Z,90.00
2022-08-14T06:38:41.595Z,90.00
2022-08-14T06:42:32.534Z,90.00
2022-08-14T06:46:23.047Z,87.90
2022-08-14T06:50:15.157Z,89.70
2022-08-14T06:53:58.503Z,89.70
2022-08-14T06:57:43.359Z,89.30
2022-08-14T07:01:43.281Z,87.90
2022-08-14T07:05:55.785Z,87.60
2022-08-14T07:09:50.447Z,85.00
2022-08-14T07:13:34.081Z,86.10
2022-08-14T07:17:16.689Z,86.80
2022-08-14T07:21:02.392Z,84.70
2022-08-14T07:24:45.307Z,83.60
2022-08-14T07:28:34.671Z,83.30
2022-08-14T07:32:22.137Z,84.30
2022-08-14T07:36:27.698Z,83.80
2022-08-14T07:40:14.207Z,80.50
2022-08-14T07:44:28.708Z,81.10
2022-08-14T07:48:07.830Z,81.80
2022-08-14T07:51:59.925Z,81.60
2022-08-14T07:55:43.419Z,79.30
2022-08-14T07:59:40.919Z,79.30
2022-08-14T08:03:28.127Z,78.30
2022-08-14T08:07:14.564Z,78.90
2022-08-14T08:11:02.930Z,78.70
2022-08-14T08:14:56.957Z,77.70
2022-08-14T08:18:44.847Z,76.10
2022-08-14T08:22:32.461Z,76.10
2022-08-14T08:26:15.475Z,75.70
2022-08-14T08:30:10.285Z,75.80
2022-08-14T08:33:54.413Z,76.30
2022-08-14T08:37:40.303Z,75.60
2022-08-14T08:41:27.977Z,73.80
2022-08-14T08:45:17.451Z,73.60
2022-08-14T08:52:53.125Z,72.30
2022-08-14T08:56:39.653Z,72.20
2022-08-14T09:00:24.685Z,72.00
2022-08-14T09:04:17.272Z,72.10
2022-08-14T09:08:30.763Z,71.70
2022-08-14T09:12:16.078Z,70.90
2022-08-14T09:15:58.794Z,70.10
2022-08-14T09:19:41.945Z,70.00
2022-08-14T09:23:27.475Z,69.00
2022-08-14T09:27:22.498Z,68.30
2022-08-14T09:31:17.719Z,68.10
2022-08-14T09:35:10.583Z,67.50
2022-08-14T09:39:02.490Z,66.00
2022-08-14T09:42:53.790Z,66.70
2022-08-14T09:46:36.700Z,65.60
2022-08-14T09:50:26.218Z,65.40
2022-08-14T09:54:23.018Z,65.40
2022-08-14T09:58:20.060Z,64.90
2022-08-14T10:02:07.177Z,65.20
2022-08-14T10:05:52.417Z,64.30
2022-08-14T10:10:00.146Z,63.20
2022-08-14T10:13:53.181Z,61.30
2022-08-14T10:17:38.818Z,61.80
2022-08-14T10:21:22.652Z,61.10
2022-08-14T10:25:15.402Z,60.90
2022-08-14T10:29:19.924Z,59.70
2022-08-14T10:33:07.120Z,59.70
2022-08-14T10:37:02.190Z,60.40
2022-08-14T10:40:52.204Z,59.80
2022-08-14T10:44:46.107Z,59.30
2022-08-14T10:48:37.215Z,57.40
2022-08-14T10:52:26.183Z,59.00
2022-08-14T10:56:22.009Z,59.10
2022-08-14T11:00:20.692Z,58.20
2022-08-14T11:04:03.765Z,59.10
2022-08-14T11:07:59.702Z,59.40
2022-08-14T11:11:45.254Z,58.60
2022-08-14T11:15:29.955Z,58.30
2022-08-14T11:19:15.891Z,58.20
2022-08-14T11:23:01.461Z,58.50
2022-08-14T11:26:47.218Z,59.40
2022-08-14T11:30:49.039Z,59.20
2022-08-14T11:34:38.129Z,59.00
2022-08-14T11:38:22.312Z,57.60
2022-08-14T11:43:07.895Z,58.10
2022-08-14T11:46:17.897Z,57.80
2022-08-14T11:50:25.043Z,58.00
2022-08-14T11:54:19.417Z,58.10
2022-08-14T11:58:07.847Z,57.60
2022-08-14T12:01:51.046Z,56.20
2022-08-14T12:05:36.844Z,56.90
2022-08-14T12:09:32.720Z,57.40
2022-08-14T12:13:19.153Z,57.70
2022-08-14T12:17:12.727Z,57.30
2022-08-14T12:20:59.999Z,56.00
2022-08-14T12:24:45.118Z,54.40
2022-08-14T12:28:33.700Z,55.90
2022-08-14T12:32:44.727Z,54.60
2022-08-14T12:36:30.592Z,53.00
2022-08-14T12:40:24.833Z,53.00
2022-08-14T12:44:08.949Z,53.20
2022-08-14T12:48:01.757Z,52.90
2022-08-14T12:52:12.212Z,52.70
2022-08-14T12:56:21.463Z,52.30
2022-08-14T13:00:22.793Z,52.40
2022-08-14T13:04:09.994Z,51.20
2022-08-14T13:07:53.166Z,51.80
2022-08-14T13:11:41.325Z,51.60
2022-08-14T13:15:28.839Z,50.80
2022-08-14T13:19:15.925Z,50.80
2022-08-14T13:22:59.582Z,51.00
2022-08-14T13:26:46.450Z,51.00
2022-08-14T13:30:30.793Z,51.40
2022-08-14T13:34:14.355Z,50.70
2022-08-14T13:37:57.355Z,50.10
2022-08-14T13:41:40.540Z,50.00
2022-08-14T13:45:24.556Z,49.60
2022-08-14T13:49:29.106Z,49.60
2022-08-14T13:53:15.233Z,49.40
2022-08-14T13:57:03.548Z,49.30
2022-08-14T14:00:53.028Z,48.40
2022-08-14T14:04:41.135Z,48.10
2022-08-14T14:08:43.330Z,48.90
2022-08-14T14:12:37.483Z,49.00
2022-08-14T14:16:31.072Z,48.50
2022-08-14T14:20:34.426Z,48.80
2022-08-14T14:24:18.533Z,48.20
2022-08-14T14:28:04.473Z,48.20
2022-08-14T14:31:49.510Z,47.90
2022-08-14T14:35:38.522Z,47.90
2022-08-14T14:39:27.439Z,47.30
2022-08-14T14:43:13.268Z,47.40
2022-08-14T14:46:58.246Z,47.70
2022-08-14T14:50:43.211Z,47.20
2022-08-14T14:54:32.193Z,46.70
2022-08-14T14:58:23.240Z,46.60
2022-08-14T15:02:08.201Z,46.90
2022-08-14T15:05:53.372Z,46.20
2022-08-14T15:09:36.540Z,46.40
2022-08-14T15:13:19.195Z,46.40
2022-08-14T15:17:06.480Z,45.50
2022-08-14T15:20:49.473Z,45.90
2022-08-14T15:24:33.385Z,45.70
2022-08-14T15:28:21.359Z,45.70
2022-08-14T15:32:09.263Z,45.30
2022-08-14T15:35:52.196Z,45.20
2022-08-14T15:39:44.269Z,45.70
2022-08-14T15:43:27.371Z,47.20
2022-08-14T15:47:13.944Z,49.20
2022-08-14T15:51:10.959Z,49.60
2022-08-14T15:54:58.008Z,50.20
2022-08-14T15:58:41.690Z,50.70
2022-08-14T16:02:29.343Z,51.10
2022-08-14T16:06:15.747Z,51.60
2022-08-14T16:10:28.165Z,51.70
2022-08-14T16:14:06.576Z,51.50
2022-08-14T16:17:50.155Z,51.10
2022-08-14T16:21:34.216Z,51.10
2022-08-14T16:25:34.771Z,50.20
2022-08-14T16:29:18.367Z,50.20
2022-08-14T16:33:01.237Z,50.50
2022-08-14T16:36:50.887Z,51.00
2022-08-14T16:40:42.907Z,51.20
2022-08-14T16:44:31.914Z,51.20
2022-08-14T16:48:55.599Z,51.40
2022-08-14T16:52:26.008Z,51.70
2022-08-14T16:56:28.123Z,51.90
2022-08-14T17:00:28.825Z,52.40
2022-08-14T17:04:14.977Z,53.40
2022-08-14T17:08:32.909Z,54.20
2022-08-14T17:12:28.489Z,54.70
2022-08-14T17:16:25.128Z,55.10
2022-08-14T17:20:53.227Z,55.90
2022-08-14T17:28:50.670Z,56.90
2022-08-14T17:32:56.715Z,56.90
2022-08-14T17:36:34.204Z,57.20
2022-08-14T17:40:20.759Z,57.50
2022-08-14T17:44:19.931Z,58.00
2022-08-14T17:48:08.947Z,58.30
2022-08-14T17:52:18.919Z,58.10
2022-08-14T17:56:16.093Z,58.30
2022-08-14T18:00:01.648Z,58.60
2022-08-14T18:03:50.920Z,58.70
2022-08-14T18:07:59.924Z,58.90
2022-08-14T18:11:46.368Z,59.30
2022-08-14T18:15:36.987Z,59.90
2022-08-14T18:19:22.023Z,60.50
2022-08-14T18:23:06.354Z,61.60
2022-08-14T18:27:01.583Z,62.80
2022-08-14T18:30:58.137Z,65.20
2022-08-14T18:34:50.866Z,67.70
2022-08-14T18:38:45.746Z,69.40
2022-08-14T18:42:46.717Z,70.90
2022-08-14T18:47:00.832Z,71.70
2022-08-14T18:50:34.013Z,72.50
2022-08-14T18:54:34.327Z,73.20
2022-08-14T18:58:27.826Z,74.10
2022-08-14T19:02:44.046Z,74.80
2022-08-14T19:06:55.725Z,75.90
2022-08-14T19:10:39.541Z,77.40
2022-08-14T19:14:48.324Z,78.10
2022-08-14T19:18:38.395Z,79.00
2022-08-14T19:22:30.352Z,79.40
2022-08-14T19:26:35.437Z,79.70
2022-08-14T19:30:29.184Z,80.20
2022-08-14T19:34:29.840Z,80.40
2022-08-14T19:38:32.070Z,80.50
2022-08-14T19:42:28.148Z,80.70
2022-08-14T19:46:39.160Z,81.00
2022-08-14T19:50:37.998Z,81.40
2022-08-14T19:54:31.155Z,81.50
2022-08-14T19:58:14.248Z,81.70
2022-08-14T20:01:58.203Z,82.10
2022-08-14T20:05:46.175Z,82.30
2022-08-14T20:11:04.940Z,82.70
2022-08-14T20:13:38.622Z,82.70
2022-08-14T20:17:26.899Z,82.70
2022-08-14T20:21:11.186Z,82.40
2022-08-14T20:24:54.681Z,82.10
2022-08-14T20:28:37.338Z,81.60
2022-08-14T20:32:35.844Z,81.60
2022-08-14T20:36:26.491Z,81.60
2022-08-14T20:40:23.911Z,81.70
2022-08-14T20:44:28.446Z,82.00
2022-08-14T20:48:11.526Z,82.20
2022-08-14T20:52:00.352Z,82.50
2022-08-14T20:55:48.181Z,82.50
2022-08-14T20:59:43.931Z,82.10
2022-08-14T21:03:30.197Z,82.00
2022-08-14T21:07:25.397Z,81.60
2022-08-14T21:11:19.900Z,81.00
2022-08-14T21:15:02.680Z,81.20
2022-08-14T21:18:48.296Z,81.50
2022-08-14T21:22:30.737Z,81.70
2022-08-14T21:26:18.629Z,81.30
2022-08-14T21:30:22.161Z,81.40
2022-08-14T21:34:31.760Z,82.00
2022-08-14T21:38:17.982Z,82.10
2022-08-14T21:42:01.550Z,81.70
2022-08-14T21:45:53.260Z,81.70
2022-08-14T21:49:39.016Z,81.90
2022-08-14T21:53:25.439Z,82.30
2022-08-14T21:57:15.392Z,82.50
2022-08-14T22:00:58.091Z,83.10
2022-08-14T22:04:42.268Z,84.00
2022-08-14T22:08:27.259Z,85.30
2022-08-14T22:12:58.127Z,86.50
2022-08-14T22:17:00.036Z,87.80
2022-08-14T22:20:20.658Z,88.60
2022-08-14T22:24:10.350Z,90.40
2022-08-14T22:27:55.844Z,90.10
2022-08-14T22:31:41.307Z,90.40
2022-08-14T22:52:33.070Z,91.60
2022-08-14T22:56:20.398Z,92.60
2022-08-14T23:00:08.236Z,92.10
2022-08-14T23:03:51.405Z,95.80
2022-08-14T23:08:57.059Z,96.50
2022-08-14T23:11:40.377Z,97.30
2022-08-14T23:15:29.874Z,99.90
2022-08-14T23:19:13.139Z,97.90
2022-08-14T23:22:57.848Z,95.60
2022-08-14T23:26:48.326Z,95.20
2022-08-14T23:30:34.824Z,95.00
2022-08-14T23:34:21.313Z,94.50
2022-08-14T23:38:05.505Z,94.60
2022-08-14T23:41:53.558Z,95.40
2022-08-14T23:45:38.565Z,97.80
2022-08-14T23:49:21.414Z,99.20
2022-08-14T23:53:28.371Z,99.90
2022-08-14T23:57:19.154Z,99.90
